createdAt,value
2023-02-25T00:00:48.946Z,24.38
2023-02-25T00:03:15.363Z,23.25
2023-02-25T00:05:42.134Z,17.50
2023-02-25T00:08:08.924Z,17.65
2023-02-25T00:10:35.269Z,23.15
2023-02-25T00:13:17.345Z,17.27
2023-02-25T00:15:44.366Z,16.58
2023-02-25T00:18:12.206Z,16.17
2023-02-25T00:20:39.506Z,24.10
2023-02-25T00:23:05.876Z,16.02
2023-02-25T00:25:32.286Z,15.80
2023-02-25T00:27:58.656Z,23.05
2023-02-25T00:30:25.687Z,20.70
2023-02-25T00:32:52.089Z,17.13
2023-02-25T00:35:19.819Z,23.38
2023-02-25T00:37:46.154Z,15.68
2023-02-25T00:40:12.766Z,12.98
2023-02-25T00:42:39.129Z,17.30
2023-02-25T00:45:06.670Z,11.05
2023-02-25T00:47:33.216Z,13.70
2023-02-25T00:49:59.687Z,14.52
2023-02-25T00:52:27.367Z,15.23
2023-02-25T00:54:53.735Z,17.33
2023-02-25T00:57:20.148Z,17.40
2023-02-25T00:59:46.513Z,19.42
2023-02-25T01:02:12.947Z,17.88
2023-02-25T01:04:39.310Z,14.30
2023-02-25T01:07:05.824Z,11.05
2023-02-25T01:09:33.547Z,8.93
2023-02-25T01:11:59.927Z,9.68
2023-02-25T01:14:26.481Z,10.02
2023-02-25T01:16:53.982Z,16.27
2023-02-25T01:19:22.142Z,11.93
2023-02-25T01:21:50.525Z,11.63
2023-02-25T01:24:19.980Z,7.63
2023-02-25T01:26:49.968Z,14.50
2023-02-25T01:29:19.014Z,10.50
2023-02-25T01:31:46.016Z,12.73
2023-02-25T01:34:14.904Z,13.10
2023-02-25T01:36:41.894Z,13.65
2023-02-25T01:39:09.947Z,17.20
2023-02-25T01:41:37.819Z,16.90
2023-02-25T01:44:12.321Z,14.20
2023-02-25T01:46:39.987Z,17.35
2023-02-25T01:49:11.195Z,19.10
2023-02-25T01:51:38.063Z,15.82
2023-02-25T01:54:08.892Z,15.30
2023-02-25T01:56:38.153Z,15.75
2023-02-25T01:59:05.359Z,21.13
2023-02-25T02:01:36.697Z,20.42
2023-02-25T02:04:05.307Z,17.30
2023-02-25T02:06:36.094Z,11.90
2023-02-25T02:09:04.229Z,15.05
2023-02-25T02:11:30.594Z,12.13
2023-02-25T02:13:59.153Z,12.35
2023-02-25T02:16:43.675Z,16.00
2023-02-25T02:19:21.647Z,17.77
2023-02-25T02:22:00.742Z,12.50
2023-02-25T02:25:01.817Z,10.80
2023-02-25T02:27:43.544Z,12.57
2023-02-25T02:30:27.977Z,15.70
2023-02-25T02:33:04.052Z,12.93
2023-02-25T02:35:39.012Z,14.60
2023-02-25T02:38:12.676Z,14.38
2023-02-25T02:40:47.068Z,11.27
2023-02-25T02:43:34.121Z,11.02
2023-02-25T02:46:08.175Z,12.77
2023-02-25T02:48:39.051Z,19.92
2023-02-25T02:51:10.677Z,12.65
2023-02-25T02:53:42.170Z,12.90
2023-02-25T02:56:12.357Z,9.60
2023-02-25T02:58:42.947Z,11.98
2023-02-25T03:01:13.984Z,9.98
2023-02-25T03:03:46.964Z,9.30
2023-02-25T03:06:18.285Z,8.40
2023-02-25T03:08:48.567Z,8.88
2023-02-25T03:11:15.251Z,10.98
2023-02-25T03:13:42.881Z,20.25
2023-02-25T03:16:14.455Z,16.45
2023-02-25T03:18:49.347Z,8.48
2023-02-25T03:21:21.742Z,12.48
2023-02-25T03:23:48.251Z,10.57
2023-02-25T03:26:22.004Z,7.22
2023-02-25T03:28:48.665Z,14.07
2023-02-25T03:31:20.459Z,14.57
2023-02-25T03:33:54.421Z,7.95
2023-02-25T03:36:24.855Z,9.77
2023-02-25T03:38:55.750Z,11.90
2023-02-25T03:41:25.930Z,7.90
2023-02-25T03:43:56.281Z,12.75
2023-02-25T03:46:23.836Z,9.63
2023-02-25T03:48:53.153Z,11.93
2023-02-25T03:51:24.595Z,7.43
2023-02-25T03:53:51.076Z,8.02
2023-02-25T03:56:17.470Z,7.00
2023-02-25T03:58:44.387Z,8.77
2023-02-25T04:01:17.037Z,9.52
2023-02-25T04:03:43.931Z,6.57
2023-02-25T04:06:12.586Z,10.80
2023-02-25T04:08:39.006Z,10.07
2023-02-25T04:11:05.512Z,7.65
2023-02-25T04:13:31.929Z,8.75
2023-02-25T04:15:58.723Z,11.10
2023-02-25T04:18:25.200Z,7.80
2023-02-25T04:20:51.560Z,9.00
2023-02-25T04:23:19.271Z,14.52
2023-02-25T04:25:45.631Z,8.77
2023-02-25T04:28:12.065Z,11.90
2023-02-25T04:30:38.669Z,8.45
2023-02-25T04:33:05.208Z,8.73
2023-02-25T04:35:31.672Z,15.75
2023-02-25T04:37:58.036Z,5.53
2023-02-25T04:40:26.026Z,5.35
2023-02-25T04:42:52.406Z,9.82
2023-02-25T04:45:19.624Z,3.53
2023-02-25T04:47:46.023Z,3.10
2023-02-25T04:50:12.827Z,8.65
2023-02-25T04:52:39.227Z,11.27
2023-02-25T04:55:06.873Z,8.57
2023-02-25T04:57:35.663Z,10.98
2023-02-25T05:00:05.956Z,8.52
2023-02-25T05:02:32.625Z,8.25
2023-02-25T05:04:58.992Z,8.10
2023-02-25T05:07:25.406Z,12.13
2023-02-25T05:09:51.755Z,9.98
2023-02-25T05:12:18.124Z,10.68
2023-02-25T05:14:45.794Z,5.97
2023-02-25T05:17:12.133Z,5.75
2023-02-25T05:19:38.537Z,4.28
2023-02-25T05:22:04.883Z,9.52
2023-02-25T05:24:31.236Z,9.63
2023-02-25T05:26:57.589Z,8.88
2023-02-25T05:29:23.986Z,10.15
2023-02-25T05:31:52.069Z,4.82
2023-02-25T05:34:18.577Z,3.72
2023-02-25T05:36:44.932Z,7.25
2023-02-25T05:39:12.665Z,7.45
2023-02-25T05:41:39.055Z,4.30
2023-02-25T05:44:05.507Z,6.00
2023-02-25T05:46:31.871Z,5.32
2023-02-25T05:48:59.571Z,7.00
2023-02-25T05:51:26.067Z,5.43
2023-02-25T05:53:52.522Z,4.65
2023-02-25T05:56:22.048Z,4.30
2023-02-25T05:58:49.028Z,14.00
2023-02-25T06:01:17.948Z,3.33
2023-02-25T06:03:47.925Z,2.30
2023-02-25T06:06:18.354Z,2.80
2023-02-25T06:08:44.756Z,5.65
2023-02-25T06:11:13.158Z,13.55
2023-02-25T06:13:40.148Z,4.63
2023-02-25T06:16:06.987Z,3.88
2023-02-25T06:18:33.664Z,2.97
2023-02-25T06:21:02.919Z,1.70
2023-02-25T06:23:30.922Z,2.25
2023-02-25T06:25:57.846Z,3.05
2023-02-25T06:28:24.196Z,2.65
2023-02-25T06:30:50.571Z,1.67
2023-02-25T06:33:17.019Z,3.22
2023-02-25T06:35:43.364Z,2.70
2023-02-25T06:38:10.227Z,4.82
2023-02-25T06:40:38.868Z,3.28
2023-02-25T06:43:05.309Z,3.67
2023-02-25T06:45:31.684Z,2.88
2023-02-25T06:47:58.067Z,3.33
2023-02-25T06:50:24.444Z,2.72
2023-02-25T06:52:50.801Z,2.28
2023-02-25T06:55:17.191Z,2.10
2023-02-25T06:57:44.881Z,3.47
2023-02-25T07:00:12.539Z,3.13
2023-02-25T07:02:38.939Z,3.17
2023-02-25T07:05:05.703Z,3.17
2023-02-25T07:07:32.674Z,4.25
2023-02-25T07:09:59.071Z,3.75
2023-02-25T07:12:25.710Z,1.08
2023-02-25T07:14:53.384Z,1.75
2023-02-25T07:17:19.806Z,2.80
2023-02-25T07:19:46.156Z,2.50
2023-02-25T07:22:14.984Z,3.30
2023-02-25T07:24:41.640Z,2.85
2023-02-25T07:27:08.227Z,4.95
2023-02-25T07:29:34.616Z,1.25
2023-02-25T07:32:02.599Z,5.25
2023-02-25T07:34:29.139Z,2.00
2023-02-25T07:36:55.496Z,2.25
2023-02-25T07:39:21.935Z,1.25
2023-02-25T07:41:48.619Z,1.35
2023-02-25T07:44:15.052Z,2.40
2023-02-25T07:46:41.575Z,3.63
2023-02-25T07:49:09.482Z,1.20
2023-02-25T07:51:35.833Z,1.80
2023-02-25T07:54:02.204Z,3.88
2023-02-25T07:56:30.114Z,2.33
2023-02-25T07:58:56.684Z,3.47
2023-02-25T08:01:25.233Z,2.20
2023-02-25T08:03:52.983Z,3.72
2023-02-25T08:06:20.915Z,1.70
2023-02-25T08:08:47.753Z,1.50
2023-02-25T08:11:14.519Z,3.90
2023-02-25T08:13:41.192Z,3.30
2023-02-25T08:16:09.564Z,3.63
2023-02-25T08:18:36.560Z,1.85
2023-02-25T08:21:03.304Z,1.45
2023-02-25T08:23:31.495Z,2.55
2023-02-25T08:25:58.794Z,3.38
2023-02-25T08:28:27.578Z,3.97
2023-02-25T08:30:54.162Z,3.53
2023-02-25T08:33:21.077Z,1.80
2023-02-25T08:35:47.471Z,2.47
2023-02-25T08:38:13.989Z,1.63
2023-02-25T08:40:42.086Z,1.60
2023-02-25T08:43:09.390Z,4.07
2023-02-25T08:45:37.830Z,3.58
2023-02-25T08:48:04.499Z,1.48
2023-02-25T08:50:30.934Z,1.98
2023-02-25T08:52:58.087Z,2.25
2023-02-25T08:55:24.560Z,3.05
2023-02-25T08:57:52.291Z,2.88
2023-02-25T09:00:20.224Z,1.55
2023-02-25T09:02:47.270Z,2.08
2023-02-25T09:05:13.745Z,3.70
2023-02-25T09:07:40.166Z,6.03
2023-02-25T09:10:07.349Z,3.10
2023-02-25T09:12:33.858Z,3.22
2023-02-25T09:15:01.789Z,2.40
2023-02-25T09:17:28.187Z,1.63
2023-02-25T09:19:54.679Z,4.45
2023-02-25T09:22:21.151Z,3.15
2023-02-25T09:24:47.503Z,5.32
2023-02-25T09:27:13.850Z,3.10
2023-02-25T09:29:40.620Z,2.40
2023-02-25T09:32:15.800Z,2.63
2023-02-25T09:34:42.263Z,1.77
2023-02-25T09:37:08.694Z,3.63
2023-02-25T09:39:35.266Z,2.00
2023-02-25T09:42:07.404Z,3.92
2023-02-25T09:44:39.092Z,3.50
2023-02-25T09:47:15.068Z,3.53
2023-02-25T09:49:45.972Z,2.40
2023-02-25T09:52:16.098Z,3.28
2023-02-25T09:54:45.091Z,1.63
2023-02-25T09:57:15.655Z,1.17
2023-02-25T09:59:42.355Z,3.35
2023-02-25T10:02:22.295Z,1.13
2023-02-25T10:05:03.068Z,2.90
2023-02-25T10:07:34.951Z,1.70
2023-02-25T10:10:09.349Z,1.60
2023-02-25T10:12:41.883Z,1.50
2023-02-25T10:15:22.293Z,2.10
2023-02-25T10:18:04.944Z,1.08
2023-02-25T10:20:55.612Z,1.13
2023-02-25T10:23:35.694Z,1.50
2023-02-25T10:26:08.065Z,2.78
2023-02-25T10:28:35.679Z,3.35
2023-02-25T10:31:05.327Z,1.40
2023-02-25T10:33:35.692Z,3.45
2023-02-25T10:36:07.910Z,3.92
2023-02-25T10:38:35.931Z,2.20
2023-02-25T10:41:02.726Z,3.65
2023-02-25T10:43:29.222Z,3.33
2023-02-25T10:46:01.213Z,1.85
2023-02-25T10:48:27.858Z,2.42
2023-02-25T10:51:14.880Z,4.90
2023-02-25T10:54:02.377Z,1.63
2023-02-25T10:56:32.785Z,1.98
2023-02-25T10:59:01.951Z,1.42
2023-02-25T11:01:36.592Z,2.72
2023-02-25T11:04:05.386Z,1.77
2023-02-25T11:06:35.824Z,6.55
2023-02-25T11:09:04.448Z,1.05
2023-02-25T11:11:32.840Z,1.27
2023-02-25T11:14:02.306Z,2.13
2023-02-25T11:16:30.774Z,3.33
2023-02-25T11:18:59.670Z,2.22
2023-02-25T11:21:34.309Z,3.95
2023-02-25T11:24:02.609Z,1.95
2023-02-25T11:26:32.670Z,2.60
2023-02-25T11:29:01.491Z,2.20
2023-02-25T11:31:31.742Z,1.15
2023-02-25T11:34:00.932Z,2.75
2023-02-25T11:36:30.851Z,4.00
2023-02-25T11:39:11.112Z,3.10
2023-02-25T11:41:37.480Z,1.30
2023-02-25T11:44:18.945Z,2.67
2023-02-25T11:46:53.169Z,1.85
2023-02-25T11:49:27.548Z,1.77
2023-02-25T11:52:04.439Z,3.10
2023-02-25T11:54:39.807Z,3.42
2023-02-25T11:57:13.956Z,5.68
2023-02-25T11:59:48.337Z,2.67
2023-02-25T12:02:29.900Z,2.72
2023-02-25T12:05:15.613Z,2.88
2023-02-25T12:08:14.157Z,1.20
2023-02-25T12:11:17.528Z,2.65
2023-02-25T12:14:03.478Z,4.22
2023-02-25T12:16:52.145Z,1.95
2023-02-25T12:19:56.710Z,3.45
2023-02-25T12:23:00.710Z,2.67
2023-02-25T12:25:34.773Z,2.80
2023-02-25T12:28:40.046Z,1.75
2023-02-25T12:31:22.671Z,3.70
2023-02-25T12:34:22.831Z,3.58
2023-02-25T12:37:02.422Z,1.88
2023-02-25T12:39:51.870Z,4.15
2023-02-25T12:42:34.405Z,4.90
2023-02-25T12:45:27.820Z,3.60
2023-02-25T12:48:24.099Z,2.37
2023-02-25T12:51:04.724Z,3.85
2023-02-25T12:53:44.342Z,1.17
2023-02-25T12:56:28.373Z,2.05
2023-02-25T12:59:13.848Z,4.55
2023-02-25T13:02:11.505Z,4.45
2023-02-25T13:04:50.785Z,2.08
2023-02-25T13:07:42.077Z,4.03
2023-02-25T13:10:33.054Z,2.00
2023-02-25T13:13:18.906Z,1.35
2023-02-25T13:15:57.814Z,0.95
2023-02-25T13:18:35.607Z,4.28
2023-02-25T13:21:16.894Z,3.00
2023-02-25T13:24:00.588Z,4.60
2023-02-25T13:26:50.871Z,4.43
2023-02-25T13:29:31.786Z,2.25
2023-02-25T13:32:13.012Z,2.95
2023-02-25T13:34:49.557Z,4.95
2023-02-25T13:37:25.410Z,2.25
2023-02-25T13:40:27.362Z,5.05
2023-02-25T13:43:06.805Z,3.65
2023-02-25T13:45:50.642Z,3.42
2023-02-25T13:48:31.861Z,2.72
2023-02-25T13:51:13.361Z,2.67
2023-02-25T13:53:58.911Z,2.88
2023-02-25T13:56:58.145Z,1.42
2023-02-25T13:59:43.366Z,4.25
2023-02-25T14:02:34.300Z,6.95
2023-02-25T14:05:23.667Z,2.15
2023-02-25T14:08:07.739Z,3.05
2023-02-25T14:10:53.100Z,2.40
2023-02-25T14:13:44.280Z,3.72
2023-02-25T14:16:27.913Z,2.35
2023-02-25T14:19:08.879Z,4.43
2023-02-25T14:21:49.176Z,3.97
2023-02-25T14:24:26.227Z,1.98
2023-02-25T14:27:04.580Z,5.57
2023-02-25T14:29:38.622Z,3.60
2023-02-25T14:32:25.770Z,4.47
2023-02-25T14:35:12.677Z,5.30
2023-02-25T14:37:45.995Z,4.35
2023-02-25T14:40:30.947Z,2.83
2023-02-25T14:43:12.056Z,2.67
2023-02-25T14:45:43.254Z,3.55
2023-02-25T14:48:17.479Z,3.85
2023-02-25T14:50:49.478Z,3.83
2023-02-25T14:53:49.730Z,3.33
2023-02-25T14:56:37.703Z,4.07
2023-02-25T14:59:29.601Z,5.78
2023-02-25T15:02:22.950Z,4.90
2023-02-25T15:05:18.493Z,4.50
2023-02-25T15:07:56.710Z,4.05
2023-02-25T15:10:32.265Z,3.67
2023-02-25T15:13:16.938Z,4.63
2023-02-25T15:16:08.430Z,4.60
2023-02-25T15:19:21.523Z,5.88
2023-02-25T15:21:48.691Z,3.35
2023-02-25T15:24:36.623Z,4.53
2023-02-25T15:27:33.294Z,2.53
2023-02-25T15:30:02.063Z,4.70
2023-02-25T15:32:29.564Z,3.00
2023-02-25T15:34:58.030Z,3.88
2023-02-25T15:37:31.457Z,4.18
2023-02-25T15:40:00.597Z,4.70
2023-02-25T15:42:44.878Z,4.32
2023-02-25T15:45:41.500Z,4.22
2023-02-25T15:48:35.786Z,5.65
2023-02-25T15:51:07.909Z,3.33
2023-02-25T15:53:41.656Z,4.05
2023-02-25T15:56:29.376Z,5.10
2023-02-25T15:58:57.619Z,4.35
2023-02-25T16:01:29.710Z,3.58
2023-02-25T16:03:56.314Z,4.95
2023-02-25T16:06:29.247Z,5.38
2023-02-25T16:09:05.252Z,4.37
2023-02-25T16:11:37.196Z,6.18
2023-02-25T16:14:07.532Z,4.85
2023-02-25T16:16:40.505Z,7.80
2023-02-25T16:19:11.394Z,7.10
2023-02-25T16:21:40.866Z,8.07
2023-02-25T16:24:09.313Z,9.85
2023-02-25T16:26:45.394Z,7.35
2023-02-25T16:29:26.955Z,3.55
2023-02-25T16:32:01.388Z,5.07
2023-02-25T16:34:32.714Z,7.78
2023-02-25T16:37:07.450Z,4.95
2023-02-25T16:39:34.729Z,5.90
2023-02-25T16:42:03.307Z,8.00
2023-02-25T16:44:34.206Z,6.85
2023-02-25T16:47:02.666Z,5.85
2023-02-25T16:49:33.034Z,4.60
2023-02-25T16:52:00.561Z,6.10
2023-02-25T16:54:32.329Z,7.05
2023-02-25T16:57:00.642Z,8.18
2023-02-25T16:59:31.845Z,5.68
2023-02-25T17:02:00.785Z,4.90
2023-02-25T17:04:31.564Z,6.50
2023-02-25T17:07:12.043Z,5.47
2023-02-25T17:09:44.209Z,8.38
2023-02-25T17:12:15.070Z,6.78
2023-02-25T17:14:44.207Z,8.73
2023-02-25T17:17:16.550Z,7.50
2023-02-25T17:19:44.319Z,10.30
2023-02-25T17:22:10.752Z,6.70
2023-02-25T17:24:37.227Z,6.15
2023-02-25T17:27:03.683Z,4.63
2023-02-25T17:29:36.195Z,7.82
2023-02-25T17:32:13.596Z,4.50
2023-02-25T17:34:41.242Z,6.82
2023-02-25T17:37:12.414Z,6.95
2023-02-25T17:39:39.560Z,6.28
2023-02-25T17:42:26.560Z,6.88
2023-02-25T17:44:53.097Z,4.30
2023-02-25T17:47:22.878Z,3.53
2023-02-25T17:49:50.350Z,5.22
2023-02-25T17:52:21.248Z,7.13
2023-02-25T17:54:51.208Z,3.90
2023-02-25T17:57:19.704Z,7.35
2023-02-25T17:59:50.491Z,3.45
2023-02-25T18:02:31.843Z,6.78
2023-02-25T18:05:15.350Z,5.65
2023-02-25T18:07:44.017Z,5.78
2023-02-25T18:10:53.840Z,4.20
2023-02-25T18:13:34.268Z,8.43
2023-02-25T18:16:35.481Z,6.65
2023-02-25T18:19:07.119Z,4.90
2023-02-25T18:21:40.035Z,6.95
2023-02-25T18:24:07.961Z,5.03
2023-02-25T18:26:34.366Z,5.38
2023-02-25T18:29:01.091Z,5.38
2023-02-25T18:31:27.570Z,7.63
2023-02-25T18:33:54.584Z,6.93
2023-02-25T18:36:24.149Z,8.40
2023-02-25T18:38:52.522Z,9.27
2023-02-25T18:41:20.255Z,9.02
2023-02-25T18:43:46.691Z,6.43
2023-02-25T18:46:13.085Z,12.18
2023-02-25T18:48:39.644Z,7.53
2023-02-25T18:51:12.268Z,4.97
2023-02-25T18:53:38.994Z,10.90
2023-02-25T18:56:05.725Z,14.45
2023-02-25T18:58:33.485Z,12.32
2023-02-25T19:01:00.394Z,15.13
2023-02-25T19:03:30.226Z,22.52
2023-02-25T19:05:56.887Z,4.60
2023-02-25T19:08:23.279Z,8.50
2023-02-25T19:10:52.037Z,8.60
2023-02-25T19:13:23.422Z,14.75
2023-02-25T19:15:51.198Z,8.88
2023-02-25T19:18:17.663Z,5.03
2023-02-25T19:20:44.658Z,6.15
2023-02-25T19:23:12.758Z,7.93
2023-02-25T19:25:39.752Z,5.25
2023-02-25T19:28:06.671Z,5.18
2023-02-25T19:30:35.022Z,7.80
2023-02-25T19:33:04.858Z,8.02
2023-02-25T19:35:33.207Z,6.88
2023-02-25T19:37:59.577Z,6.47
2023-02-25T19:40:26.277Z,8.15
2023-02-25T19:42:52.890Z,9.68
2023-02-25T19:45:22.666Z,7.15
2023-02-25T19:47:50.132Z,10.90
2023-02-25T19:50:19.760Z,8.38
2023-02-25T19:52:46.163Z,10.27
2023-02-25T19:55:14.110Z,6.72
2023-02-25T19:57:41.099Z,8.15
2023-02-25T20:00:10.716Z,5.60
2023-02-25T20:02:37.672Z,7.72
2023-02-25T20:05:04.453Z,7.10
2023-02-25T20:07:32.359Z,6.88
2023-02-25T20:09:58.835Z,7.68
2023-02-25T20:12:25.249Z,6.15
2023-02-25T20:14:52.138Z,6.57
2023-02-25T20:17:18.583Z,4.22
2023-02-25T20:19:44.962Z,8.55
2023-02-25T20:22:11.324Z,9.32
2023-02-25T20:24:39.089Z,4.70
2023-02-25T20:27:05.565Z,5.93
2023-02-25T20:29:32.024Z,7.10
2023-02-25T20:31:58.900Z,6.00
2023-02-25T20:34:25.697Z,12.43
2023-02-25T20:36:56.614Z,7.38
2023-02-25T20:39:47.523Z,9.07
2023-02-25T20:42:17.085Z,6.03
2023-02-25T20:44:44.050Z,7.53
2023-02-25T20:47:15.004Z,8.82
2023-02-25T20:49:41.681Z,9.55
2023-02-25T20:52:10.932Z,6.82
2023-02-25T20:54:37.357Z,6.32
2023-02-25T20:57:05.114Z,8.00
2023-02-25T20:59:31.609Z,6.25
2023-02-25T21:01:58.014Z,8.70
2023-02-25T21:04:24.434Z,10.48
2023-02-25T21:06:50.812Z,9.55
2023-02-25T21:09:17.207Z,6.88
2023-02-25T21:11:43.586Z,6.22
2023-02-25T21:14:11.334Z,6.63
2023-02-25T21:16:38.049Z,4.60
2023-02-25T21:19:04.941Z,6.43
2023-02-25T21:21:31.436Z,7.93
2023-02-25T21:23:57.887Z,6.25
2023-02-25T21:26:24.515Z,6.88
2023-02-25T21:28:51.026Z,4.28
2023-02-25T21:31:18.929Z,4.22
2023-02-25T21:33:45.477Z,5.38
2023-02-25T21:36:12.083Z,4.53
2023-02-25T21:38:39.472Z,5.05
2023-02-25T21:41:07.401Z,5.53
2023-02-25T21:43:33.938Z,10.88
2023-02-25T21:46:02.187Z,5.25
2023-02-25T21:48:31.254Z,4.47
2023-02-25T21:50:57.720Z,8.63
2023-02-25T21:53:24.207Z,7.50
2023-02-25T21:55:50.556Z,5.85
2023-02-25T21:58:16.906Z,6.75
2023-02-25T22:00:43.371Z,5.10
2023-02-25T22:03:09.741Z,5.70
2023-02-25T22:05:37.993Z,3.17
2023-02-25T22:08:05.356Z,5.50
2023-02-25T22:10:31.858Z,6.10
2023-02-25T22:12:58.234Z,4.65
2023-02-25T22:15:24.600Z,6.50
2023-02-25T22:17:50.966Z,7.70
2023-02-25T22:20:17.770Z,5.88
2023-02-25T22:22:45.572Z,3.90
2023-02-25T22:25:11.915Z,3.38
2023-02-25T22:27:38.270Z,4.65
2023-02-25T22:30:06.144Z,4.88
2023-02-25T22:32:34.958Z,6.13
2023-02-25T22:35:01.352Z,5.00
2023-02-25T22:37:27.745Z,2.80
2023-02-25T22:39:55.446Z,5.15
2023-02-25T22:42:21.827Z,5.55
2023-02-25T22:44:48.213Z,5.32
2023-02-25T22:47:14.564Z,3.83
2023-02-25T22:49:40.957Z,3.03
2023-02-25T22:52:07.336Z,4.32
2023-02-25T22:54:33.691Z,4.60
2023-02-25T22:57:01.403Z,4.95
2023-02-25T22:59:27.777Z,6.20
2023-02-25T23:01:54.199Z,4.60
2023-02-25T23:04:20.608Z,5.13
2023-02-25T23:06:47.313Z,4.88
2023-02-25T23:09:14.550Z,3.58
2023-02-25T23:11:42.330Z,4.43
2023-02-25T23:14:10.654Z,3.88
2023-02-25T23:16:39.307Z,3.53
2023-02-25T23:19:07.087Z,3.25
2023-02-25T23:21:34.444Z,2.67
2023-02-25T23:24:01.159Z,4.50
2023-02-25T23:26:29.479Z,5.05
2023-02-25T23:28:57.391Z,3.90
2023-02-25T23:31:27.967Z,5.03
2023-02-25T23:33:55.363Z,3.92
2023-02-25T23:36:22.057Z,3.85
2023-02-25T23:38:52.543Z,6.13
2023-02-25T23:41:18.886Z,4.18
2023-02-25T23:43:45.268Z,6.55
2023-02-25T23:46:11.663Z,5.00
2023-02-25T23:48:39.380Z,8.25
2023-02-25T23:51:07.112Z,4.40
2023-02-25T23:53:33.969Z,4.13
2023-02-25T23:56:04.185Z,4.78
2023-02-25T23:58:30.664Z,3.63
